sensor_id;sensor_type;location;lat;lon;timestamp;P1;durP1;ratioP1;P2;durP2;ratioP2
58414;SDS011;44210;42.706;18.344;2023-12-20T00:01:35;6.75;;;4.30;;
58414;SDS011;44210;42.706;18.344;2023-12-20T00:04:04;7.35;;;3.90;;
58414;SDS011;44210;42.706;18.344;2023-12-20T00:06:30;6.45;;;4.40;;
58414;SDS011;44210;42.706;18.344;2023-12-20T00:08:57;6.65;;;4.30;;
58414;SDS011;44210;42.706;18.344;2023-12-20T00:11:23;5.30;;;3.67;;
58414;SDS011;44210;42.706;18.344;2023-12-20T00:13:50;5.93;;;3.90;;
58414;SDS011;44210;42.706;18.344;2023-12-20T00:16:16;4.97;;;3.28;;
58414;SDS011;44210;42.706;18.344;2023-12-20T00:18:42;5.47;;;3.47;;
58414;SDS011;44210;42.706;18.344;2023-12-20T00:21:08;5.63;;;4.15;;
58414;SDS011;44210;42.706;18.344;2023-12-20T00:23:34;9.35;;;6.25;;
58414;SDS011;44210;42.706;18.344;2023-12-20T00:26:00;16.02;;;10.05;;
58414;SDS011;44210;42.706;18.344;2023-12-20T00:28:26;19.48;;;11.70;;
58414;SDS011;44210;42.706;18.344;2023-12-20T00:30:52;6.90;;;3.45;;
58414;SDS011;44210;42.706;18.344;2023-12-20T00:33:18;4.85;;;3.05;;
58414;SDS011;44210;42.706;18.344;2023-12-20T00:35:45;3.28;;;2.38;;
58414;SDS011;44210;42.706;18.344;2023-12-20T00:38:11;4.50;;;2.85;;
58414;SDS011;44210;42.706;18.344;2023-12-20T00:40:37;4.20;;;2.47;;
58414;SDS011;44210;42.706;18.344;2023-12-20T00:43:03;6.13;;;3.05;;
58414;SDS011;44210;42.706;18.344;2023-12-20T00:45:29;4.95;;;3.38;;
58414;SDS011;44210;42.706;18.344;2023-12-20T00:47:55;10.15;;;5.18;;
58414;SDS011;44210;42.706;18.344;2023-12-20T00:50:21;14.23;;;7.20;;
58414;SDS011;44210;42.706;18.344;2023-12-20T00:52:48;9.60;;;6.15;;
58414;SDS011;44210;42.706;18.344;2023-12-20T00:55:14;8.55;;;5.57;;
58414;SDS011;44210;42.706;18.344;2023-12-20T00:57:40;9.10;;;5.43;;
58414;SDS011;44210;42.706;18.344;2023-12-20T01:00:06;12.52;;;8.13;;
58414;SDS011;44210;42.706;18.344;2023-12-20T01:02:34;12.07;;;7.75;;
58414;SDS011;44210;42.706;18.344;2023-12-20T01:05:01;11.95;;;7.75;;
58414;SDS011;44210;42.706;18.344;2023-12-20T01:07:27;13.40;;;7.00;;
58414;SDS011;44210;42.706;18.344;2023-12-20T01:09:53;6.63;;;4.80;;
58414;SDS011;44210;42.706;18.344;2023-12-20T01:12:19;8.45;;;5.13;;
58414;SDS011;44210;42.706;18.344;2023-12-20T01:14:46;6.40;;;3.78;;
58414;SDS011;44210;42.706;18.344;2023-12-20T01:17:12;7.55;;;4.03;;
58414;SDS011;44210;42.706;18.344;2023-12-20T01:19:38;7.15;;;4.30;;
58414;SDS011;44210;42.706;18.344;2023-12-20T01:22:04;7.88;;;4.80;;
58414;SDS011;44210;42.706;18.344;2023-12-20T01:24:30;6.22;;;4.00;;
58414;SDS011;44210;42.706;18.344;2023-12-20T01:26:56;6.28;;;4.05;;
58414;SDS011;44210;42.706;18.344;2023-12-20T01:29:22;7.38;;;3.40;;
58414;SDS011;44210;42.706;18.344;2023-12-20T01:31:48;5.35;;;3.55;;
58414;SDS011;44210;42.706;18.344;2023-12-20T01:34:15;5.20;;;3.72;;
58414;SDS011;44210;42.706;18.344;2023-12-20T01:36:41;5.30;;;3.60;;
58414;SDS011;44210;42.706;18.344;2023-12-20T01:39:07;5.55;;;3.90;;
58414;SDS011;44210;42.706;18.344;2023-12-20T01:41:33;6.63;;;3.28;;
58414;SDS011;44210;42.706;18.344;2023-12-20T01:43:59;3.70;;;2.50;;
58414;SDS011;44210;42.706;18.344;2023-12-20T01:46:25;6.93;;;3.10;;
58414;SDS011;44210;42.706;18.344;2023-12-20T01:48:52;6.13;;;3.55;;
58414;SDS011;44210;42.706;18.344;2023-12-20T01:51:18;6.22;;;3.92;;
58414;SDS011;44210;42.706;18.344;2023-12-20T01:53:45;8.77;;;4.93;;
58414;SDS011;44210;42.706;18.344;2023-12-20T01:56:12;8.88;;;6.20;;
58414;SDS011;44210;42.706;18.344;2023-12-20T01:58:39;7.03;;;4.45;;
58414;SDS011;44210;42.706;18.344;2023-12-20T02:01:09;5.72;;;3.03;;
58414;SDS011;44210;42.706;18.344;2023-12-20T02:03:35;5.15;;;2.95;;
58414;SDS011;44210;42.706;18.344;2023-12-20T02:06:02;8.07;;;4.32;;
58414;SDS011;44210;42.706;18.344;2023-12-20T02:08:28;7.57;;;4.93;;
58414;SDS011;44210;42.706;18.344;2023-12-20T02:10:55;7.60;;;5.03;;
58414;SDS011;44210;42.706;18.344;2023-12-20T02:13:21;5.68;;;3.92;;
58414;SDS011;44210;42.706;18.344;2023-12-20T02:15:47;6.20;;;3.92;;
58414;SDS011;44210;42.706;18.344;2023-12-20T02:18:13;4.88;;;3.75;;
58414;SDS011;44210;42.706;18.344;2023-12-20T02:20:41;5.30;;;3.60;;
58414;SDS011;44210;42.706;18.344;2023-12-20T02:23:08;4.63;;;3.15;;
58414;SDS011;44210;42.706;18.344;2023-12-20T02:25:34;5.72;;;3.22;;
58414;SDS011;44210;42.706;18.344;2023-12-20T02:28:00;6.05;;;4.20;;
58414;SDS011;44210;42.706;18.344;2023-12-20T02:30:26;5.72;;;3.85;;
58414;SDS011;44210;42.706;18.344;2023-12-20T02:32:52;5.07;;;3.60;;
58414;SDS011;44210;42.706;18.344;2023-12-20T02:35:19;7.47;;;4.95;;
58414;SDS011;44210;42.706;18.344;2023-12-20T02:37:45;9.88;;;6.00;;
58414;SDS011;44210;42.706;18.344;2023-12-20T02:40:11;9.95;;;5.22;;
58414;SDS011;44210;42.706;18.344;2023-12-20T02:42:37;6.05;;;4.18;;
58414;SDS011;44210;42.706;18.344;2023-12-20T02:45:03;5.65;;;3.10;;
58414;SDS011;44210;42.706;18.344;2023-12-20T02:47:30;4.80;;;2.97;;
58414;SDS011;44210;42.706;18.344;2023-12-20T02:49:56;6.88;;;3.15;;
58414;SDS011;44210;42.706;18.344;2023-12-20T02:52:23;7.57;;;3.30;;
58414;SDS011;44210;42.706;18.344;2023-12-20T02:54:49;6.95;;;2.95;;
58414;SDS011;44210;42.706;18.344;2023-12-20T02:57:15;6.00;;;3.75;;
58414;SDS011;44210;42.706;18.344;2023-12-20T02:59:41;5.80;;;4.07;;
58414;SDS011;44210;42.706;18.344;2023-12-20T03:02:07;6.75;;;3.70;;
58414;SDS011;44210;42.706;18.344;2023-12-20T03:04:33;4.05;;;2.75;;
58414;SDS011;44210;42.706;18.344;2023-12-20T03:06:59;4.00;;;2.50;;
58414;SDS011;44210;42.706;18.344;2023-12-20T03:09:25;6.53;;;2.88;;
58414;SDS011;44210;42.706;18.344;2023-12-20T03:11:51;4.10;;;3.00;;
58414;SDS011;44210;42.706;18.344;2023-12-20T03:14:17;4.35;;;2.80;;
58414;SDS011;44210;42.706;18.344;2023-12-20T03:16:47;5.20;;;2.70;;
58414;SDS011;44210;42.706;18.344;2023-12-20T03:19:13;4.10;;;2.47;;
58414;SDS011;44210;42.706;18.344;2023-12-20T03:21:39;4.20;;;2.42;;
58414;SDS011;44210;42.706;18.344;2023-12-20T03:24:05;4.65;;;2.33;;
58414;SDS011;44210;42.706;18.344;2023-12-20T03:26:31;3.50;;;2.70;;
58414;SDS011;44210;42.706;18.344;2023-12-20T03:28:57;4.07;;;2.53;;
58414;SDS011;44210;42.706;18.344;2023-12-20T03:31:23;4.78;;;2.30;;
58414;SDS011;44210;42.706;18.344;2023-12-20T03:33:49;3.65;;;2.10;;
58414;SDS011;44210;42.706;18.344;2023-12-20T03:36:17;3.38;;;2.40;;
58414;SDS011;44210;42.706;18.344;2023-12-20T03:38:43;3.80;;;2.53;;
58414;SDS011;44210;42.706;18.344;2023-12-20T03:41:09;3.40;;;2.45;;
58414;SDS011;44210;42.706;18.344;2023-12-20T03:43:35;4.10;;;2.40;;
58414;SDS011;44210;42.706;18.344;2023-12-20T03:46:02;4.22;;;2.70;;
58414;SDS011;44210;42.706;18.344;2023-12-20T03:48:29;5.00;;;2.53;;
58414;SDS011;44210;42.706;18.344;2023-12-20T03:50:56;3.63;;;2.42;;
58414;SDS011;44210;42.706;18.344;2023-12-20T03:53:22;4.10;;;2.92;;
58414;SDS011;44210;42.706;18.344;2023-12-20T03:55:48;4.88;;;3.03;;
58414;SDS011;44210;42.706;18.344;2023-12-20T03:58:14;3.60;;;2.67;;
58414;SDS011;44210;42.706;18.344;2023-12-20T04:00:40;5.28;;;3.10;;
58414;SDS011;44210;42.706;18.344;2023-12-20T04:03:06;6.88;;;4.18;;
58414;SDS011;44210;42.706;18.344;2023-12-20T04:05:33;6.50;;;4.40;;
58414;SDS011;44210;42.706;18.344;2023-12-20T04:07:59;8.43;;;4.22;;
58414;SDS011;44210;42.706;18.344;2023-12-20T04:10:25;6.75;;;3.92;;
58414;SDS011;44210;42.706;18.344;2023-12-20T04:12:51;5.18;;;2.63;;
58414;SDS011;44210;42.706;18.344;2023-12-20T04:15:18;4.60;;;3.45;;
58414;SDS011;44210;42.706;18.344;2023-12-20T04:17:44;3.15;;;2.50;;
58414;SDS011;44210;42.706;18.344;2023-12-20T04:20:10;3.25;;;2.38;;
58414;SDS011;44210;42.706;18.344;2023-12-20T04:22:36;3.60;;;2.40;;
58414;SDS011;44210;42.706;18.344;2023-12-20T04:25:02;4.60;;;2.63;;
58414;SDS011;44210;42.706;18.344;2023-12-20T04:27:28;3.60;;;2.22;;
58414;SDS011;44210;42.706;18.344;2023-12-20T04:29:54;4.30;;;2.83;;
58414;SDS011;44210;42.706;18.344;2023-12-20T04:32:20;3.28;;;2.17;;
58414;SDS011;44210;42.706;18.344;2023-12-20T04:34:46;3.47;;;2.28;;
58414;SDS011;44210;42.706;18.344;2023-12-20T04:37:13;4.43;;;1.95;;
58414;SDS011;44210;42.706;18.344;2023-12-20T04:39:39;3.20;;;2.35;;
58414;SDS011;44210;42.706;18.344;2023-12-20T04:42:06;4.40;;;2.60;;
58414;SDS011;44210;42.706;18.344;2023-12-20T04:44:32;4.88;;;2.95;;
58414;SDS011;44210;42.706;18.344;2023-12-20T04:46:59;5.20;;;3.30;;
58414;SDS011;44210;42.706;18.344;2023-12-20T04:49:25;4.93;;;3.28;;
58414;SDS011;44210;42.706;18.344;2023-12-20T04:51:51;6.70;;;4.15;;
58414;SDS011;44210;42.706;18.344;2023-12-20T04:54:17;5.75;;;3.42;;
58414;SDS011;44210;42.706;18.344;2023-12-20T04:56:43;6.45;;;3.05;;
58414;SDS011;44210;42.706;18.344;2023-12-20T04:59:09;3.25;;;2.60;;
58414;SDS011;44210;42.706;18.344;2023-12-20T05:01:35;3.95;;;2.53;;
58414;SDS011;44210;42.706;18.344;2023-12-20T05:04:01;3.63;;;2.55;;
58414;SDS011;44210;42.706;18.344;2023-12-20T05:06:27;4.07;;;2.70;;
58414;SDS011;44210;42.706;18.344;2023-12-20T05:08:54;3.17;;;2.40;;
58414;SDS011;44210;42.706;18.344;2023-12-20T05:11:20;3.20;;;2.10;;
58414;SDS011;44210;42.706;18.344;2023-12-20T05:13:46;3.33;;;2.50;;
58414;SDS011;44210;42.706;18.344;2023-12-20T05:16:12;3.85;;;2.88;;
58414;SDS011;44210;42.706;18.344;2023-12-20T05:18:39;4.22;;;2.55;;
58414;SDS011;44210;42.706;18.344;2023-12-20T05:21:05;3.33;;;2.42;;
58414;SDS011;44210;42.706;18.344;2023-12-20T05:23:32;4.03;;;2.50;;
58414;SDS011;44210;42.706;18.344;2023-12-20T05:25:58;4.50;;;2.72;;
58414;SDS011;44210;42.706;18.344;2023-12-20T05:28:24;3.60;;;2.40;;
58414;SDS011;44210;42.706;18.344;2023-12-20T05:30:51;3.95;;;2.53;;
58414;SDS011;44210;42.706;18.344;2023-12-20T05:33:17;4.63;;;2.88;;
58414;SDS011;44210;42.706;18.344;2023-12-20T05:35:43;6.72;;;3.08;;
58414;SDS011;44210;42.706;18.344;2023-12-20T05:38:09;6.63;;;4.15;;
58414;SDS011;44210;42.706;18.344;2023-12-20T05:40:35;8.18;;;5.88;;
58414;SDS011;44210;42.706;18.344;2023-12-20T05:43:01;11.50;;;7.32;;
58414;SDS011;44210;42.706;18.344;2023-12-20T05:45:27;11.48;;;7.22;;
58414;SDS011;44210;42.706;18.344;2023-12-20T05:47:54;10.32;;;8.13;;
58414;SDS011;44210;42.706;18.344;2023-12-20T05:50:20;14.75;;;10.20;;
58414;SDS011;44210;42.706;18.344;2023-12-20T05:52:46;14.90;;;10.15;;
58414;SDS011;44210;42.706;18.344;2023-12-20T05:55:12;14.23;;;9.88;;
58414;SDS011;44210;42.706;18.344;2023-12-20T05:57:39;10.50;;;7.00;;
58414;SDS011;44210;42.706;18.344;2023-12-20T06:00:05;6.25;;;3.45;;
58414;SDS011;44210;42.706;18.344;2023-12-20T06:02:31;5.47;;;3.60;;
58414;SDS011;44210;42.706;18.344;2023-12-20T06:04:58;7.28;;;4.55;;
58414;SDS011;44210;42.706;18.344;2023-12-20T06:07:24;6.78;;;4.45;;
58414;SDS011;44210;42.706;18.344;2023-12-20T06:09:50;5.75;;;4.07;;
58414;SDS011;44210;42.706;18.344;2023-12-20T06:12:16;5.28;;;3.55;;
58414;SDS011;44210;42.706;18.344;2023-12-20T06:14:42;4.07;;;3.08;;
58414;SDS011;44210;42.706;18.344;2023-12-20T06:17:08;8.45;;;5.07;;
58414;SDS011;44210;42.706;18.344;2023-12-20T06:19:34;8.68;;;5.78;;
58414;SDS011;44210;42.706;18.344;2023-12-20T06:22:00;6.72;;;4.25;;
58414;SDS011;44210;42.706;18.344;2023-12-20T06:24:26;6.95;;;4.18;;
58414;SDS011;44210;42.706;18.344;2023-12-20T06:26:53;7.50;;;5.03;;
58414;SDS011;44210;42.706;18.344;2023-12-20T06:29:20;7.00;;;4.78;;
58414;SDS011;44210;42.706;18.344;2023-12-20T06:31:46;7.15;;;4.63;;
58414;SDS011;44210;42.706;18.344;2023-12-20T06:34:12;6.78;;;4.13;;
58414;SDS011;44210;42.706;18.344;2023-12-20T06:36:38;7.68;;;3.88;;
58414;SDS011;44210;42.706;18.344;2023-12-20T06:39:04;16.23;;;3.90;;
58414;SDS011;44210;42.706;18.344;2023-12-20T06:41:30;8.50;;;4.00;;
58414;SDS011;44210;42.706;18.344;2023-12-20T06:43:56;6.63;;;4.40;;
58414;SDS011;44210;42.706;18.344;2023-12-20T06:46:23;6.15;;;4.07;;
58414;SDS011;44210;42.706;18.344;2023-12-20T06:48:49;9.25;;;4.78;;
58414;SDS011;44210;42.706;18.344;2023-12-20T06:51:15;9.30;;;6.47;;
58414;SDS011;44210;42.706;18.344;2023-12-20T06:53:42;11.73;;;8.20;;
58414;SDS011;44210;42.706;18.344;2023-12-20T06:56:10;11.18;;;7.70;;
58414;SDS011;44210;42.706;18.344;2023-12-20T06:58:37;13.95;;;9.32;;
58414;SDS011;44210;42.706;18.344;2023-12-20T07:01:03;12.48;;;8.20;;
58414;SDS011;44210;42.706;18.344;2023-12-20T07:03:30;12.57;;;8.52;;
58414;SDS011;44210;42.706;18.344;2023-12-20T07:05:56;18.75;;;11.65;;
58414;SDS011;44210;42.706;18.344;2023-12-20T07:08:22;17.45;;;12.48;;
58414;SDS011;44210;42.706;18.344;2023-12-20T07:10:49;19.55;;;12.65;;
58414;SDS011;44210;42.706;18.344;2023-12-20T07:13:15;18.20;;;11.63;;
58414;SDS011;44210;42.706;18.344;2023-12-20T07:15:41;25.98;;;18.30;;
58414;SDS011;44210;42.706;18.344;2023-12-20T07:18:08;32.67;;;23.20;;
58414;SDS011;44210;42.706;18.344;2023-12-20T07:20:34;30.65;;;21.65;;
58414;SDS011;44210;42.706;18.344;2023-12-20T07:23:00;20.33;;;14.95;;
58414;SDS011;44210;42.706;18.344;2023-12-20T07:25:26;18.33;;;12.32;;
58414;SDS011;44210;42.706;18.344;2023-12-20T07:27:52;18.10;;;12.60;;
58414;SDS011;44210;42.706;18.344;2023-12-20T07:30:18;33.25;;;18.05;;
58414;SDS011;44210;42.706;18.344;2023-12-20T07:32:44;37.67;;;20.77;;
58414;SDS011;44210;42.706;18.344;2023-12-20T07:35:10;27.63;;;18.67;;
58414;SDS011;44210;42.706;18.344;2023-12-20T07:37:36;22.75;;;16.10;;
58414;SDS011;44210;42.706;18.344;2023-12-20T07:40:02;24.50;;;15.40;;
58414;SDS011;44210;42.706;18.344;2023-12-20T07:42:28;24.35;;;17.30;;
58414;SDS011;44210;42.706;18.344;2023-12-20T07:44:55;19.98;;;14.55;;
58414;SDS011;44210;42.706;18.344;2023-12-20T07:47:21;22.65;;;15.75;;
58414;SDS011;44210;42.706;18.344;2023-12-20T07:49:48;31.88;;;16.55;;
58414;SDS011;44210;42.706;18.344;2023-12-20T07:52:16;20.80;;;14.82;;
58414;SDS011;44210;42.706;18.344;2023-12-20T07:54:43;21.77;;;14.13;;
58414;SDS011;44210;42.706;18.344;2023-12-20T07:57:09;23.08;;;14.18;;
58414;SDS011;44210;42.706;18.344;2023-12-20T07:59:36;21.15;;;13.40;;
58414;SDS011;44210;42.706;18.344;2023-12-20T08:02:02;21.58;;;14.55;;
58414;SDS011;44210;42.706;18.344;2023-12-20T08:04:28;17.48;;;12.25;;
58414;SDS011;44210;42.706;18.344;2023-12-20T08:06:54;21.55;;;12.90;;
58414;SDS011;44210;42.706;18.344;2023-12-20T08:09:20;26.42;;;15.43;;
58414;SDS011;44210;42.706;18.344;2023-12-20T08:11:47;30.95;;;17.73;;
58414;SDS011;44210;42.706;18.344;2023-12-20T08:14:13;31.23;;;18.60;;
58414;SDS011;44210;42.706;18.344;2023-12-20T08:16:39;27.85;;;18.27;;
58414;SDS011;44210;42.706;18.344;2023-12-20T08:19:05;22.25;;;13.48;;
58414;SDS011;44210;42.706;18.344;2023-12-20T08:21:31;21.67;;;14.63;;
58414;SDS011;44210;42.706;18.344;2023-12-20T08:23:57;35.25;;;24.52;;
58414;SDS011;44210;42.706;18.344;2023-12-20T08:26:25;34.00;;;24.90;;
58414;SDS011;44210;42.706;18.344;2023-12-20T08:28:51;13.35;;;9.65;;
58414;SDS011;44210;42.706;18.344;2023-12-20T08:31:18;17.33;;;11.68;;
58414;SDS011;44210;42.706;18.344;2023-12-20T08:33:44;13.73;;;9.95;;
58414;SDS011;44210;42.706;18.344;2023-12-20T08:36:11;17.20;;;10.23;;
58414;SDS011;44210;42.706;18.344;2023-12-20T08:38:37;9.82;;;7.93;;
58414;SDS011;44210;42.706;18.344;2023-12-20T08:41:03;10.85;;;7.95;;
58414;SDS011;44210;42.706;18.344;2023-12-20T08:43:33;18.55;;;12.15;;
58414;SDS011;44210;42.706;18.344;2023-12-20T08:46:00;16.08;;;8.88;;
58414;SDS011;44210;42.706;18.344;2023-12-20T08:48:27;12.40;;;8.27;;
58414;SDS011;44210;42.706;18.344;2023-12-20T08:50:53;25.52;;;18.42;;
58414;SDS011;44210;42.706;18.344;2023-12-20T08:53:19;16.27;;;12.95;;
58414;SDS011;44210;42.706;18.344;2023-12-20T08:55:46;17.83;;;13.30;;
58414;SDS011;44210;42.706;18.344;2023-12-20T08:58:12;16.88;;;13.00;;
58414;SDS011;44210;42.706;18.344;2023-12-20T09:00:38;17.20;;;11.43;;
58414;SDS011;44210;42.706;18.344;2023-12-20T09:03:05;17.05;;;11.27;;
58414;SDS011;44210;42.706;18.344;2023-12-20T09:05:31;14.80;;;11.70;;
58414;SDS011;44210;42.706;18.344;2023-12-20T09:07:57;16.48;;;11.88;;
58414;SDS011;44210;42.706;18.344;2023-12-20T09:10:23;13.15;;;10.25;;
58414;SDS011;44210;42.706;18.344;2023-12-20T09:12:49;12.93;;;9.07;;
58414;SDS011;44210;42.706;18.344;2023-12-20T09:15:15;15.02;;;10.05;;
58414;SDS011;44210;42.706;18.344;2023-12-20T09:17:41;14.48;;;10.10;;
58414;SDS011;44210;42.706;18.344;2023-12-20T09:20:08;25.17;;;18.30;;
58414;SDS011;44210;42.706;18.344;2023-12-20T09:22:35;50.97;;;30.70;;
58414;SDS011;44210;42.706;18.344;2023-12-20T09:25:03;39.42;;;30.60;;
58414;SDS011;44210;42.706;18.344;2023-12-20T09:27:29;39.53;;;32.30;;
58414;SDS011;44210;42.706;18.344;2023-12-20T09:29:55;21.27;;;17.33;;
58414;SDS011;44210;42.706;18.344;2023-12-20T09:32:21;18.08;;;14.90;;
58414;SDS011;44210;42.706;18.344;2023-12-20T09:34:47;19.98;;;15.98;;
58414;SDS011;44210;42.706;18.344;2023-12-20T09:37:13;22.77;;;17.45;;
58414;SDS011;44210;42.706;18.344;2023-12-20T09:39:40;22.60;;;17.85;;
58414;SDS011;44210;42.706;18.344;2023-12-20T09:42:06;23.60;;;16.65;;
58414;SDS011;44210;42.706;18.344;2023-12-20T09:44:33;23.02;;;17.17;;
58414;SDS011;44210;42.706;18.344;2023-12-20T09:47:01;20.95;;;16.58;;
58414;SDS011;44210;42.706;18.344;2023-12-20T09:49:28;21.83;;;16.10;;
58414;SDS011;44210;42.706;18.344;2023-12-20T09:51:54;22.95;;;16.08;;
58414;SDS011;44210;42.706;18.344;2023-12-20T09:54:22;23.50;;;16.63;;
58414;SDS011;44210;42.706;18.344;2023-12-20T09:56:49;22.30;;;16.67;;
58414;SDS011;44210;42.706;18.344;2023-12-20T09:59:15;19.58;;;16.08;;
58414;SDS011;44210;42.706;18.344;2023-12-20T10:01:42;19.23;;;14.43;;
58414;SDS011;44210;42.706;18.344;2023-12-20T10:04:09;16.20;;;11.98;;
58414;SDS011;44210;42.706;18.344;2023-12-20T10:06:39;15.50;;;11.88;;
58414;SDS011;44210;42.706;18.344;2023-12-20T10:09:05;14.52;;;10.82;;
58414;SDS011;44210;42.706;18.344;2023-12-20T10:11:31;15.00;;;10.25;;
58414;SDS011;44210;42.706;18.344;2023-12-20T10:14:01;10.40;;;8.40;;
58414;SDS011;44210;42.706;18.344;2023-12-20T10:16:27;10.88;;;7.35;;
58414;SDS011;44210;42.706;18.344;2023-12-20T10:18:54;10.15;;;6.05;;
58414;SDS011;44210;42.706;18.344;2023-12-20T10:21:20;9.20;;;6.60;;
58414;SDS011;44210;42.706;18.344;2023-12-20T10:23:46;8.68;;;6.72;;
58414;SDS011;44210;42.706;18.344;2023-12-20T10:26:23;10.48;;;5.53;;
58414;SDS011;44210;42.706;18.344;2023-12-20T10:28:50;10.88;;;5.20;;
58414;SDS011;44210;42.706;18.344;2023-12-20T10:31:27;7.28;;;4.72;;
58414;SDS011;44210;42.706;18.344;2023-12-20T10:33:55;7.88;;;6.18;;
58414;SDS011;44210;42.706;18.344;2023-12-20T10:36:22;12.02;;;7.80;;
58414;SDS011;44210;42.706;18.344;2023-12-20T10:38:49;9.05;;;6.40;;
58414;SDS011;44210;42.706;18.344;2023-12-20T10:41:17;8.88;;;5.78;;
58414;SDS011;44210;42.706;18.344;2023-12-20T10:43:44;8.38;;;5.75;;
58414;SDS011;44210;42.706;18.344;2023-12-20T10:46:11;8.55;;;6.60;;
58414;SDS011;44210;42.706;18.344;2023-12-20T10:48:37;13.32;;;9.00;;
58414;SDS011;44210;42.706;18.344;2023-12-20T10:51:05;19.75;;;11.27;;
58414;SDS011;44210;42.706;18.344;2023-12-20T10:53:31;16.63;;;10.57;;
58414;SDS011;44210;42.706;18.344;2023-12-20T10:55:57;15.88;;;11.32;;
58414;SDS011;44210;42.706;18.344;2023-12-20T10:58:26;10.70;;;6.55;;
58414;SDS011;44210;42.706;18.344;2023-12-20T11:00:56;8.93;;;5.80;;
58414;SDS011;44210;42.706;18.344;2023-12-20T11:03:24;5.97;;;4.32;;
58414;SDS011;44210;42.706;18.344;2023-12-20T11:05:58;9.52;;;6.68;;
58414;SDS011;44210;42.706;18.344;2023-12-20T11:11:39;31.40;;;18.25;;
58414;SDS011;44210;42.706;18.344;2023-12-20T11:14:24;30.35;;;20.63;;
58414;SDS011;44210;42.706;18.344;2023-12-20T11:16:24;24.05;;;16.10;;
58414;SDS011;44210;42.706;18.344;2023-12-20T11:18:50;17.02;;;11.98;;
58414;SDS011;44210;42.706;18.344;2023-12-20T11:21:17;12.57;;;9.07;;
58414;SDS011;44210;42.706;18.344;2023-12-20T11:23:43;10.27;;;7.70;;
58414;SDS011;44210;42.706;18.344;2023-12-20T11:26:09;10.13;;;7.82;;
58414;SDS011;44210;42.706;18.344;2023-12-20T11:28:35;12.38;;;6.97;;
58414;SDS011;44210;42.706;18.344;2023-12-20T11:31:02;12.15;;;7.32;;
58414;SDS011;44210;42.706;18.344;2023-12-20T11:33:35;8.95;;;7.13;;
58414;SDS011;44210;42.706;18.344;2023-12-20T11:36:01;12.00;;;6.93;;
58414;SDS011;44210;42.706;18.344;2023-12-20T11:38:35;8.82;;;6.93;;
58414;SDS011;44210;42.706;18.344;2023-12-20T11:41:02;8.32;;;6.40;;
58414;SDS011;44210;42.706;18.344;2023-12-20T11:46:06;7.80;;;4.28;;
58414;SDS011;44210;42.706;18.344;2023-12-20T11:48:34;6.30;;;4.70;;
58414;SDS011;44210;42.706;18.344;2023-12-20T11:51:00;7.05;;;5.18;;
58414;SDS011;44210;42.706;18.344;2023-12-20T11:53:29;6.55;;;4.45;;
58414;SDS011;44210;42.706;18.344;2023-12-20T11:55:57;10.18;;;5.63;;
58414;SDS011;44210;42.706;18.344;2023-12-20T11:58:23;14.30;;;5.18;;
58414;SDS011;44210;42.706;18.344;2023-12-20T12:00:49;11.80;;;5.28;;
58414;SDS011;44210;42.706;18.344;2023-12-20T12:03:17;8.02;;;5.35;;
58414;SDS011;44210;42.706;18.344;2023-12-20T12:05:45;13.27;;;6.63;;
58414;SDS011;44210;42.706;18.344;2023-12-20T12:08:12;9.15;;;5.38;;
58414;SDS011;44210;42.706;18.344;2023-12-20T12:10:38;9.70;;;5.55;;
58414;SDS011;44210;42.706;18.344;2023-12-20T12:13:04;9.10;;;4.78;;
58414;SDS011;44210;42.706;18.344;2023-12-20T12:15:30;9.85;;;5.05;;
58414;SDS011;44210;42.706;18.344;2023-12-20T12:17:56;9.90;;;4.38;;
58414;SDS011;44210;42.706;18.344;2023-12-20T12:20:24;8.57;;;4.82;;
58414;SDS011;44210;42.706;18.344;2023-12-20T12:23:05;10.73;;;4.80;;
58414;SDS011;44210;42.706;18.344;2023-12-20T12:25:32;7.70;;;4.50;;
58414;SDS011;44210;42.706;18.344;2023-12-20T12:28:00;8.55;;;4.13;;
58414;SDS011;44210;42.706;18.344;2023-12-20T12:30:26;8.55;;;4.50;;
58414;SDS011;44210;42.706;18.344;2023-12-20T12:32:53;8.73;;;5.18;;
58414;SDS011;44210;42.706;18.344;2023-12-20T12:35:19;8.38;;;5.22;;
58414;SDS011;44210;42.706;18.344;2023-12-20T12:37:46;9.15;;;5.20;;
58414;SDS011;44210;42.706;18.344;2023-12-20T12:40:15;12.20;;;5.75;;
58414;SDS011;44210;42.706;18.344;2023-12-20T12:42:42;8.88;;;5.18;;
58414;SDS011;44210;42.706;18.344;2023-12-20T12:45:09;6.00;;;4.85;;
58414;SDS011;44210;42.706;18.344;2023-12-20T12:47:36;6.43;;;4.65;;
58414;SDS011;44210;42.706;18.344;2023-12-20T12:50:03;7.63;;;4.32;;
58414;SDS011;44210;42.706;18.344;2023-12-20T12:52:30;7.55;;;4.50;;
58414;SDS011;44210;42.706;18.344;2023-12-20T12:54:56;7.07;;;4.75;;
58414;SDS011;44210;42.706;18.344;2023-12-20T12:57:22;7.13;;;4.50;;
58414;SDS011;44210;42.706;18.344;2023-12-20T12:59:49;5.95;;;3.67;;
58414;SDS011;44210;42.706;18.344;2023-12-20T13:02:15;6.15;;;3.72;;
58414;SDS011;44210;42.706;18.344;2023-12-20T13:04:41;6.00;;;3.80;;
58414;SDS011;44210;42.706;18.344;2023-12-20T13:07:08;4.13;;;3.42;;
58414;SDS011;44210;42.706;18.344;2023-12-20T13:09:38;6.40;;;4.07;;
58414;SDS011;44210;42.706;18.344;2023-12-20T13:12:04;7.70;;;4.43;;
58414;SDS011;44210;42.706;18.344;2023-12-20T13:14:34;6.10;;;3.95;;
58414;SDS011;44210;42.706;18.344;2023-12-20T13:17:02;7.05;;;3.83;;
58414;SDS011;44210;42.706;18.344;2023-12-20T13:19:28;4.43;;;3.08;;
58414;SDS011;44210;42.706;18.344;2023-12-20T13:21:55;6.90;;;3.95;;
58414;SDS011;44210;42.706;18.344;2023-12-20T13:24:23;9.00;;;5.75;;
58414;SDS011;44210;42.706;18.344;2023-12-20T13:26:49;6.93;;;3.60;;
58414;SDS011;44210;42.706;18.344;2023-12-20T13:29:15;7.65;;;4.13;;
58414;SDS011;44210;42.706;18.344;2023-12-20T13:31:41;8.30;;;3.85;;
58414;SDS011;44210;42.706;18.344;2023-12-20T13:34:07;5.85;;;3.50;;
58414;SDS011;44210;42.706;18.344;2023-12-20T13:36:34;5.88;;;3.72;;
58414;SDS011;44210;42.706;18.344;2023-12-20T13:39:01;5.45;;;3.55;;
58414;SDS011;44210;42.706;18.344;2023-12-20T13:41:29;8.25;;;3.83;;
58414;SDS011;44210;42.706;18.344;2023-12-20T13:43:55;8.18;;;3.58;;
58414;SDS011;44210;42.706;18.344;2023-12-20T13:46:21;6.68;;;3.97;;
58414;SDS011;44210;42.706;18.344;2023-12-20T13:48:48;9.52;;;4.10;;
58414;SDS011;44210;42.706;18.344;2023-12-20T13:51:14;11.73;;;4.25;;
58414;SDS011;44210;42.706;18.344;2023-12-20T13:53:40;10.02;;;4.20;;
58414;SDS011;44210;42.706;18.344;2023-12-20T13:56:06;5.03;;;3.88;;
58414;SDS011;44210;42.706;18.344;2023-12-20T13:58:33;5.50;;;4.05;;
58414;SDS011;44210;42.706;18.344;2023-12-20T14:00:59;11.93;;;4.25;;
58414;SDS011;44210;42.706;18.344;2023-12-20T14:03:27;5.43;;;4.07;;
58414;SDS011;44210;42.706;18.344;2023-12-20T14:05:53;6.75;;;3.88;;
58414;SDS011;44210;42.706;18.344;2023-12-20T14:08:19;14.20;;;5.35;;
58414;SDS011;44210;42.706;18.344;2023-12-20T14:10:45;9.38;;;4.43;;
58414;SDS011;44210;42.706;18.344;2023-12-20T14:13:11;6.97;;;4.32;;
58414;SDS011;44210;42.706;18.344;2023-12-20T14:15:37;12.13;;;8.00;;
58414;SDS011;44210;42.706;18.344;2023-12-20T14:18:06;9.85;;;6.18;;
58414;SDS011;44210;42.706;18.344;2023-12-20T14:20:37;14.90;;;7.15;;
58414;SDS011;44210;42.706;18.344;2023-12-20T14:23:04;6.35;;;3.97;;
58414;SDS011;44210;42.706;18.344;2023-12-20T14:25:31;13.40;;;5.47;;
58414;SDS011;44210;42.706;18.344;2023-12-20T14:27:57;10.90;;;5.65;;